sensor_id;sensor_type;location;lat;lon;timestamp;P1;durP1;ratioP1;P2;durP2;ratioP2
44189;SDS011;29856;52.144;5.430;2023-05-02T00:02:16;38.33;;;25.25;;
44189;SDS011;29856;52.144;5.430;2023-05-02T00:04:41;40.25;;;24.50;;
44189;SDS011;29856;52.144;5.430;2023-05-02T00:07:07;43.17;;;25.67;;
44189;SDS011;29856;52.144;5.430;2023-05-02T00:09:32;42.55;;;26.20;;
44189;SDS011;29856;52.144;5.430;2023-05-02T00:11:58;41.20;;;24.52;;
44189;SDS011;29856;52.144;5.430;2023-05-02T00:14:24;39.25;;;24.20;;
44189;SDS011;29856;52.144;5.430;2023-05-02T00:16:49;39.35;;;24.08;;
44189;SDS011;29856;52.144;5.430;2023-05-02T00:19:15;33.08;;;21.90;;
44189;SDS011;29856;52.144;5.430;2023-05-02T00:21:40;32.42;;;21.33;;
44189;SDS011;29856;52.144;5.430;2023-05-02T00:24:06;32.53;;;19.48;;
44189;SDS011;29856;52.144;5.430;2023-05-02T00:26:31;28.23;;;16.20;;
44189;SDS011;29856;52.144;5.430;2023-05-02T00:28:56;26.20;;;15.82;;
44189;SDS011;29856;52.144;5.430;2023-05-02T00:31:22;24.45;;;15.82;;
44189;SDS011;29856;52.144;5.430;2023-05-02T00:33:47;20.00;;;11.50;;
44189;SDS011;29856;52.144;5.430;2023-05-02T00:36:14;17.20;;;11.38;;
44189;SDS011;29856;52.144;5.430;2023-05-02T00:38:40;20.77;;;11.80;;
44189;SDS011;29856;52.144;5.430;2023-05-02T00:41:06;20.50;;;12.27;;
44189;SDS011;29856;52.144;5.430;2023-05-02T00:43:31;27.88;;;12.10;;
44189;SDS011;29856;52.144;5.430;2023-05-02T00:45:57;20.38;;;10.77;;
44189;SDS011;29856;52.144;5.430;2023-05-02T00:48:23;21.02;;;11.82;;
44189;SDS011;29856;52.144;5.430;2023-05-02T00:50:49;19.50;;;11.00;;
44189;SDS011;29856;52.144;5.430;2023-05-02T00:53:15;20.65;;;12.10;;
44189;SDS011;29856;52.144;5.430;2023-05-02T00:55:40;18.77;;;11.05;;
44189;SDS011;29856;52.144;5.430;2023-05-02T00:58:13;21.08;;;11.77;;
44189;SDS011;29856;52.144;5.430;2023-05-02T01:03:11;14.80;;;9.50;;
44189;SDS011;29856;52.144;5.430;2023-05-02T01:05:52;15.57;;;9.40;;
44189;SDS011;29856;52.144;5.430;2023-05-02T01:08:34;16.02;;;8.75;;
44189;SDS011;29856;52.144;5.430;2023-05-02T01:11:16;16.80;;;8.25;;
44189;SDS011;29856;52.144;5.430;2023-05-02T01:14:05;15.15;;;5.38;;
44189;SDS011;29856;52.144;5.430;2023-05-02T01:16:35;11.77;;;4.60;;
44189;SDS011;29856;52.144;5.430;2023-05-02T01:19:04;18.02;;;5.45;;
44189;SDS011;29856;52.144;5.430;2023-05-02T01:21:33;12.52;;;4.88;;
44189;SDS011;29856;52.144;5.430;2023-05-02T01:24:01;15.93;;;3.58;;
44189;SDS011;29856;52.144;5.430;2023-05-02T01:29:21;6.22;;;2.40;;
44189;SDS011;29856;52.144;5.430;2023-05-02T01:31:48;7.82;;;2.67;;
44189;SDS011;29856;52.144;5.430;2023-05-02T01:34:15;5.22;;;2.13;;
44189;SDS011;29856;52.144;5.430;2023-05-02T01:36:44;5.43;;;1.98;;
44189;SDS011;29856;52.144;5.430;2023-05-02T01:39:13;4.70;;;1.58;;
44189;SDS011;29856;52.144;5.430;2023-05-02T01:41:43;6.88;;;2.30;;
44189;SDS011;29856;52.144;5.430;2023-05-02T01:44:13;8.77;;;3.08;;
44189;SDS011;29856;52.144;5.430;2023-05-02T01:46:40;10.00;;;3.00;;
44189;SDS011;29856;52.144;5.430;2023-05-02T01:49:07;12.88;;;3.97;;
44189;SDS011;29856;52.144;5.430;2023-05-02T01:51:33;11.68;;;3.47;;
44189;SDS011;29856;52.144;5.430;2023-05-02T01:54:01;17.98;;;3.72;;
44189;SDS011;29856;52.144;5.430;2023-05-02T01:56:28;11.07;;;3.38;;
44189;SDS011;29856;52.144;5.430;2023-05-02T01:58:56;13.68;;;3.63;;
44189;SDS011;29856;52.144;5.430;2023-05-02T02:01:23;6.57;;;1.95;;
44189;SDS011;29856;52.144;5.430;2023-05-02T02:03:50;13.15;;;2.95;;
44189;SDS011;29856;52.144;5.430;2023-05-02T02:06:18;14.27;;;3.60;;
44189;SDS011;29856;52.144;5.430;2023-05-02T02:08:45;9.15;;;3.08;;
44189;SDS011;29856;52.144;5.430;2023-05-02T02:11:11;12.20;;;2.60;;
44189;SDS011;29856;52.144;5.430;2023-05-02T02:13:43;12.63;;;2.97;;
44189;SDS011;29856;52.144;5.430;2023-05-02T02:16:13;9.57;;;2.78;;
44189;SDS011;29856;52.144;5.430;2023-05-02T02:18:44;9.85;;;2.67;;
44189;SDS011;29856;52.144;5.430;2023-05-02T02:21:11;10.82;;;3.30;;
44189;SDS011;29856;52.144;5.430;2023-05-02T02:23:40;13.10;;;2.75;;
44189;SDS011;29856;52.144;5.430;2023-05-02T02:26:10;9.68;;;2.58;;
44189;SDS011;29856;52.144;5.430;2023-05-02T02:28:37;13.02;;;2.60;;
44189;SDS011;29856;52.144;5.430;2023-05-02T02:31:03;13.45;;;3.03;;
44189;SDS011;29856;52.144;5.430;2023-05-02T02:33:29;17.83;;;2.50;;
44189;SDS011;29856;52.144;5.430;2023-05-02T02:36:05;9.38;;;2.03;;
44189;SDS011;29856;52.144;5.430;2023-05-02T02:38:47;5.82;;;1.77;;
44189;SDS011;29856;52.144;5.430;2023-05-02T02:41:21;17.58;;;3.13;;
44189;SDS011;29856;52.144;5.430;2023-05-02T02:43:59;11.82;;;2.20;;
44189;SDS011;29856;52.144;5.430;2023-05-02T02:46:59;7.90;;;1.92;;
44189;SDS011;29856;52.144;5.430;2023-05-02T02:49:34;8.68;;;2.00;;
44189;SDS011;29856;52.144;5.430;2023-05-02T02:52:26;10.07;;;2.08;;
44189;SDS011;29856;52.144;5.430;2023-05-02T02:55:06;5.03;;;1.67;;
44189;SDS011;29856;52.144;5.430;2023-05-02T02:58:07;9.40;;;2.00;;
44189;SDS011;29856;52.144;5.430;2023-05-02T03:00:44;6.70;;;1.75;;
44189;SDS011;29856;52.144;5.430;2023-05-02T03:03:13;8.15;;;1.90;;
44189;SDS011;29856;52.144;5.430;2023-05-02T03:05:40;10.40;;;1.80;;
44189;SDS011;29856;52.144;5.430;2023-05-02T03:08:07;8.10;;;1.88;;
44189;SDS011;29856;52.144;5.430;2023-05-02T03:10:32;10.23;;;2.28;;
44189;SDS011;29856;52.144;5.430;2023-05-02T03:12:58;9.77;;;2.22;;
44189;SDS011;29856;52.144;5.430;2023-05-02T03:17:57;9.82;;;2.20;;
44189;SDS011;29856;52.144;5.430;2023-05-02T03:20:23;10.18;;;2.60;;
44189;SDS011;29856;52.144;5.430;2023-05-02T03:22:48;11.48;;;2.50;;
44189;SDS011;29856;52.144;5.430;2023-05-02T03:25:14;10.98;;;1.67;;
44189;SDS011;29856;52.144;5.430;2023-05-02T03:27:39;9.57;;;1.95;;
44189;SDS011;29856;52.144;5.430;2023-05-02T03:30:07;13.10;;;2.42;;
44189;SDS011;29856;52.144;5.430;2023-05-02T03:32:33;9.05;;;2.00;;
44189;SDS011;29856;52.144;5.430;2023-05-02T03:34:59;10.60;;;2.08;;
44189;SDS011;29856;52.144;5.430;2023-05-02T03:37:24;9.13;;;2.30;;
44189;SDS011;29856;52.144;5.430;2023-05-02T03:39:50;11.43;;;2.50;;
44189;SDS011;29856;52.144;5.430;2023-05-02T03:42:16;15.55;;;2.17;;
44189;SDS011;29856;52.144;5.430;2023-05-02T03:44:41;7.75;;;1.95;;
44189;SDS011;29856;52.144;5.430;2023-05-02T03:47:06;11.07;;;2.15;;
44189;SDS011;29856;52.144;5.430;2023-05-02T03:49:35;7.78;;;1.63;;
44189;SDS011;29856;52.144;5.430;2023-05-02T03:52:01;14.88;;;3.00;;
44189;SDS011;29856;52.144;5.430;2023-05-02T03:54:26;10.70;;;2.47;;
44189;SDS011;29856;52.144;5.430;2023-05-02T03:56:52;8.30;;;2.15;;
44189;SDS011;29856;52.144;5.430;2023-05-02T03:59:18;6.47;;;1.90;;
44189;SDS011;29856;52.144;5.430;2023-05-02T04:01:47;8.50;;;2.22;;
44189;SDS011;29856;52.144;5.430;2023-05-02T04:04:13;14.35;;;3.80;;
44189;SDS011;29856;52.144;5.430;2023-05-02T04:06:38;12.80;;;2.67;;
44189;SDS011;29856;52.144;5.430;2023-05-02T04:09:03;20.38;;;3.25;;
44189;SDS011;29856;52.144;5.430;2023-05-02T04:11:29;9.18;;;2.28;;
44189;SDS011;29856;52.144;5.430;2023-05-02T04:13:55;9.63;;;2.17;;
44189;SDS011;29856;52.144;5.430;2023-05-02T04:16:20;15.68;;;2.50;;
44189;SDS011;29856;52.144;5.430;2023-05-02T04:18:46;14.32;;;3.83;;
44189;SDS011;29856;52.144;5.430;2023-05-02T04:21:11;14.27;;;2.92;;
44189;SDS011;29856;52.144;5.430;2023-05-02T04:23:37;7.30;;;1.77;;
44189;SDS011;29856;52.144;5.430;2023-05-02T04:26:02;7.28;;;2.33;;
44189;SDS011;29856;52.144;5.430;2023-05-02T04:28:28;12.45;;;3.25;;
44189;SDS011;29856;52.144;5.430;2023-05-02T04:30:54;13.57;;;2.95;;
44189;SDS011;29856;52.144;5.430;2023-05-02T04:33:20;12.15;;;3.03;;
44189;SDS011;29856;52.144;5.430;2023-05-02T04:35:46;9.88;;;2.88;;
44189;SDS011;29856;52.144;5.430;2023-05-02T04:38:13;13.18;;;2.70;;
44189;SDS011;29856;52.144;5.430;2023-05-02T04:40:38;11.55;;;2.42;;
44189;SDS011;29856;52.144;5.430;2023-05-02T04:43:04;16.80;;;3.28;;
44189;SDS011;29856;52.144;5.430;2023-05-02T04:45:30;10.25;;;2.35;;
44189;SDS011;29856;52.144;5.430;2023-05-02T04:47:55;12.02;;;2.75;;
44189;SDS011;29856;52.144;5.430;2023-05-02T04:50:21;21.65;;;3.42;;
44189;SDS011;29856;52.144;5.430;2023-05-02T04:52:46;14.70;;;3.00;;
44189;SDS011;29856;52.144;5.430;2023-05-02T04:55:12;14.10;;;2.70;;
44189;SDS011;29856;52.144;5.430;2023-05-02T04:57:37;12.95;;;2.83;;
44189;SDS011;29856;52.144;5.430;2023-05-02T05:00:03;13.40;;;3.00;;
44189;SDS011;29856;52.144;5.430;2023-05-02T05:02:28;15.90;;;3.03;;
44189;SDS011;29856;52.144;5.430;2023-05-02T05:04:54;17.20;;;3.15;;
44189;SDS011;29856;52.144;5.430;2023-05-02T05:07:19;17.33;;;3.47;;
44189;SDS011;29856;52.144;5.430;2023-05-02T05:09:45;12.82;;;3.13;;
44189;SDS011;29856;52.144;5.430;2023-05-02T05:12:10;16.25;;;3.70;;
44189;SDS011;29856;52.144;5.430;2023-05-02T05:14:36;17.20;;;3.05;;
44189;SDS011;29856;52.144;5.430;2023-05-02T05:17:01;20.83;;;3.40;;
44189;SDS011;29856;52.144;5.430;2023-05-02T05:19:27;14.48;;;2.92;;
44189;SDS011;29856;52.144;5.430;2023-05-02T05:21:52;21.27;;;3.15;;
44189;SDS011;29856;52.144;5.430;2023-05-02T05:24:18;17.17;;;3.03;;
44189;SDS011;29856;52.144;5.430;2023-05-02T05:26:43;15.93;;;3.40;;
44189;SDS011;29856;52.144;5.430;2023-05-02T05:29:09;13.85;;;2.78;;
44189;SDS011;29856;52.144;5.430;2023-05-02T05:31:34;23.02;;;4.32;;
44189;SDS011;29856;52.144;5.430;2023-05-02T05:33:59;20.65;;;3.17;;
44189;SDS011;29856;52.144;5.430;2023-05-02T05:36:25;20.83;;;4.57;;
44189;SDS011;29856;52.144;5.430;2023-05-02T05:38:51;19.83;;;3.80;;
44189;SDS011;29856;52.144;5.430;2023-05-02T05:41:16;20.00;;;3.95;;
44189;SDS011;29856;52.144;5.430;2023-05-02T05:43:42;22.05;;;3.50;;
44189;SDS011;29856;52.144;5.430;2023-05-02T05:46:07;22.60;;;3.20;;
44189;SDS011;29856;52.144;5.430;2023-05-02T05:48:33;16.83;;;3.45;;
44189;SDS011;29856;52.144;5.430;2023-05-02T05:51:02;20.17;;;3.33;;
44189;SDS011;29856;52.144;5.430;2023-05-02T05:53:28;23.05;;;4.15;;
44189;SDS011;29856;52.144;5.430;2023-05-02T05:55:53;12.90;;;3.03;;
44189;SDS011;29856;52.144;5.430;2023-05-02T05:58:19;21.35;;;4.00;;
44189;SDS011;29856;52.144;5.430;2023-05-02T06:00:44;18.83;;;4.07;;
44189;SDS011;29856;52.144;5.430;2023-05-02T06:03:10;21.90;;;4.72;;
44189;SDS011;29856;52.144;5.430;2023-05-02T06:05:35;20.20;;;4.85;;
44189;SDS011;29856;52.144;5.430;2023-05-02T06:08:01;16.85;;;4.13;;
44189;SDS011;29856;52.144;5.430;2023-05-02T06:10:26;20.80;;;5.28;;
44189;SDS011;29856;52.144;5.430;2023-05-02T06:12:52;19.15;;;4.97;;
44189;SDS011;29856;52.144;5.430;2023-05-02T06:15:17;17.17;;;4.18;;
44189;SDS011;29856;52.144;5.430;2023-05-02T06:17:43;26.95;;;5.03;;
44189;SDS011;29856;52.144;5.430;2023-05-02T06:20:08;15.68;;;4.05;;
44189;SDS011;29856;52.144;5.430;2023-05-02T06:22:34;16.45;;;3.67;;
44189;SDS011;29856;52.144;5.430;2023-05-02T06:25:00;14.90;;;3.60;;
44189;SDS011;29856;52.144;5.430;2023-05-02T06:27:26;10.73;;;3.13;;
44189;SDS011;29856;52.144;5.430;2023-05-02T06:29:51;15.88;;;2.65;;
44189;SDS011;29856;52.144;5.430;2023-05-02T06:32:18;15.68;;;3.17;;
44189;SDS011;29856;52.144;5.430;2023-05-02T06:34:44;13.57;;;2.58;;
44189;SDS011;29856;52.144;5.430;2023-05-02T06:37:09;10.82;;;3.38;;
44189;SDS011;29856;52.144;5.430;2023-05-02T06:39:35;16.63;;;2.70;;
44189;SDS011;29856;52.144;5.430;2023-05-02T06:42:01;14.52;;;2.85;;
44189;SDS011;29856;52.144;5.430;2023-05-02T06:44:27;11.68;;;3.03;;
44189;SDS011;29856;52.144;5.430;2023-05-02T06:46:52;17.67;;;3.95;;
44189;SDS011;29856;52.144;5.430;2023-05-02T06:49:18;18.95;;;3.08;;
44189;SDS011;29856;52.144;5.430;2023-05-02T06:51:43;8.40;;;2.30;;
44189;SDS011;29856;52.144;5.430;2023-05-02T06:54:09;12.50;;;3.67;;
44189;SDS011;29856;52.144;5.430;2023-05-02T06:56:34;12.85;;;2.92;;
44189;SDS011;29856;52.144;5.430;2023-05-02T06:59:02;17.10;;;3.40;;
44189;SDS011;29856;52.144;5.430;2023-05-02T07:01:28;17.63;;;3.10;;
44189;SDS011;29856;52.144;5.430;2023-05-02T07:03:53;21.45;;;4.50;;
44189;SDS011;29856;52.144;5.430;2023-05-02T07:06:19;11.00;;;2.50;;
44189;SDS011;29856;52.144;5.430;2023-05-02T07:08:44;21.23;;;4.13;;
44189;SDS011;29856;52.144;5.430;2023-05-02T07:11:10;23.80;;;3.78;;
44189;SDS011;29856;52.144;5.430;2023-05-02T07:13:35;12.50;;;3.10;;
44189;SDS011;29856;52.144;5.430;2023-05-02T07:16:01;17.45;;;3.30;;
44189;SDS011;29856;52.144;5.430;2023-05-02T07:18:26;17.38;;;3.17;;
44189;SDS011;29856;52.144;5.430;2023-05-02T07:20:52;16.35;;;3.25;;
44189;SDS011;29856;52.144;5.430;2023-05-02T07:23:17;12.27;;;3.00;;
44189;SDS011;29856;52.144;5.430;2023-05-02T07:25:43;8.93;;;2.65;;
44189;SDS011;29856;52.144;5.430;2023-05-02T07:28:08;15.00;;;3.45;;
44189;SDS011;29856;52.144;5.430;2023-05-02T07:30:33;16.40;;;3.15;;
44189;SDS011;29856;52.144;5.430;2023-05-02T07:32:59;14.73;;;3.67;;
44189;SDS011;29856;52.144;5.430;2023-05-02T07:35:24;8.35;;;2.70;;
44189;SDS011;29856;52.144;5.430;2023-05-02T07:37:50;10.95;;;2.65;;
44189;SDS011;29856;52.144;5.430;2023-05-02T07:40:15;16.55;;;3.25;;
44189;SDS011;29856;52.144;5.430;2023-05-02T07:42:41;12.88;;;2.95;;
44189;SDS011;29856;52.144;5.430;2023-05-02T07:45:07;9.75;;;2.78;;
44189;SDS011;29856;52.144;5.430;2023-05-02T07:47:33;19.48;;;3.00;;
44189;SDS011;29856;52.144;5.430;2023-05-02T07:49:58;9.85;;;2.55;;
44189;SDS011;29856;52.144;5.430;2023-05-02T07:52:24;13.27;;;3.00;;
44189;SDS011;29856;52.144;5.430;2023-05-02T07:54:50;10.45;;;2.63;;
44189;SDS011;29856;52.144;5.430;2023-05-02T07:57:17;13.30;;;2.47;;
44189;SDS011;29856;52.144;5.430;2023-05-02T07:59:43;10.57;;;2.80;;
44189;SDS011;29856;52.144;5.430;2023-05-02T08:02:08;8.48;;;2.35;;
44189;SDS011;29856;52.144;5.430;2023-05-02T08:04:34;15.38;;;2.83;;
44189;SDS011;29856;52.144;5.430;2023-05-02T08:06:59;14.82;;;3.00;;
44189;SDS011;29856;52.144;5.430;2023-05-02T08:09:25;16.20;;;3.13;;
44189;SDS011;29856;52.144;5.430;2023-05-02T08:11:50;13.10;;;2.97;;
44189;SDS011;29856;52.144;5.430;2023-05-02T08:14:16;12.25;;;2.45;;
44189;SDS011;29856;52.144;5.430;2023-05-02T08:16:41;9.30;;;2.10;;
44189;SDS011;29856;52.144;5.430;2023-05-02T08:19:07;7.43;;;2.10;;
44189;SDS011;29856;52.144;5.430;2023-05-02T08:21:33;10.80;;;2.28;;
44189;SDS011;29856;52.144;5.430;2023-05-02T08:23:59;9.05;;;2.00;;
44189;SDS011;29856;52.144;5.430;2023-05-02T08:26:25;5.25;;;1.60;;
44189;SDS011;29856;52.144;5.430;2023-05-02T08:28:51;11.57;;;2.55;;
44189;SDS011;29856;52.144;5.430;2023-05-02T08:31:16;7.53;;;1.90;;
44189;SDS011;29856;52.144;5.430;2023-05-02T08:33:42;10.10;;;2.03;;
44189;SDS011;29856;52.144;5.430;2023-05-02T08:36:14;7.15;;;1.88;;
44189;SDS011;29856;52.144;5.430;2023-05-02T08:38:41;9.77;;;2.50;;
44189;SDS011;29856;52.144;5.430;2023-05-02T08:41:11;10.35;;;1.80;;
44189;SDS011;29856;52.144;5.430;2023-05-02T08:43:40;8.35;;;1.60;;
44189;SDS011;29856;52.144;5.430;2023-05-02T08:46:06;4.97;;;1.20;;
44189;SDS011;29856;52.144;5.430;2023-05-02T08:48:34;5.82;;;1.90;;
44189;SDS011;29856;52.144;5.430;2023-05-02T08:51:00;10.68;;;1.85;;
44189;SDS011;29856;52.144;5.430;2023-05-02T08:53:28;8.35;;;2.25;;
44189;SDS011;29856;52.144;5.430;2023-05-02T08:55:58;11.20;;;2.00;;
44189;SDS011;29856;52.144;5.430;2023-05-02T08:58:23;5.78;;;1.90;;
44189;SDS011;29856;52.144;5.430;2023-05-02T09:00:49;7.60;;;1.77;;
44189;SDS011;29856;52.144;5.430;2023-05-02T09:03:32;6.18;;;1.63;;
44189;SDS011;29856;52.144;5.430;2023-05-02T09:08:34;5.25;;;1.50;;
44189;SDS011;29856;52.144;5.430;2023-05-02T09:11:04;6.20;;;1.83;;
44189;SDS011;29856;52.144;5.430;2023-05-02T09:13:30;3.92;;;1.50;;
44189;SDS011;29856;52.144;5.430;2023-05-02T09:18:28;6.97;;;1.60;;
44189;SDS011;29856;52.144;5.430;2023-05-02T09:20:54;6.35;;;1.83;;
44189;SDS011;29856;52.144;5.430;2023-05-02T09:23:30;5.05;;;1.70;;
44189;SDS011;29856;52.144;5.430;2023-05-02T09:25:59;4.78;;;1.50;;
44189;SDS011;29856;52.144;5.430;2023-05-02T09:28:38;5.07;;;1.40;;
44189;SDS011;29856;52.144;5.430;2023-05-02T09:31:06;3.95;;;1.02;;
44189;SDS011;29856;52.144;5.430;2023-05-02T09:33:33;6.93;;;1.65;;
44189;SDS011;29856;52.144;5.430;2023-05-02T09:35:58;7.65;;;1.63;;
44189;SDS011;29856;52.144;5.430;2023-05-02T09:38:26;9.77;;;1.80;;
44189;SDS011;29856;52.144;5.430;2023-05-02T09:40:52;4.75;;;1.45;;
44189;SDS011;29856;52.144;5.430;2023-05-02T09:43:18;9.00;;;1.73;;
44189;SDS011;29856;52.144;5.430;2023-05-02T09:45:54;6.35;;;1.58;;
44189;SDS011;29856;52.144;5.430;2023-05-02T09:48:20;8.32;;;1.75;;
44189;SDS011;29856;52.144;5.430;2023-05-02T09:50:46;10.05;;;2.20;;
44189;SDS011;29856;52.144;5.430;2023-05-02T09:53:11;8.23;;;1.73;;
44189;SDS011;29856;52.144;5.430;2023-05-02T09:55:37;6.82;;;1.70;;
44189;SDS011;29856;52.144;5.430;2023-05-02T09:58:03;6.10;;;1.85;;
44189;SDS011;29856;52.144;5.430;2023-05-02T10:03:07;7.10;;;1.70;;
44189;SDS011;29856;52.144;5.430;2023-05-02T10:05:35;7.97;;;1.83;;
44189;SDS011;29856;52.144;5.430;2023-05-02T10:08:02;7.53;;;1.92;;
44189;SDS011;29856;52.144;5.430;2023-05-02T10:10:32;6.50;;;1.77;;
44189;SDS011;29856;52.144;5.430;2023-05-02T10:13:02;9.00;;;2.10;;
44189;SDS011;29856;52.144;5.430;2023-05-02T10:15:29;3.95;;;1.65;;
44189;SDS011;29856;52.144;5.430;2023-05-02T10:17:56;6.57;;;1.80;;
44189;SDS011;29856;52.144;5.430;2023-05-02T10:20:24;3.58;;;1.73;;
44189;SDS011;29856;52.144;5.430;2023-05-02T10:23:05;6.22;;;1.92;;
44189;SDS011;29856;52.144;5.430;2023-05-02T10:25:31;8.65;;;1.58;;
44189;SDS011;29856;52.144;5.430;2023-05-02T10:27:57;8.68;;;1.88;;
44189;SDS011;29856;52.144;5.430;2023-05-02T10:30:24;8.15;;;2.10;;
44189;SDS011;29856;52.144;5.430;2023-05-02T10:32:50;6.63;;;1.80;;
44189;SDS011;29856;52.144;5.430;2023-05-02T10:35:17;9.35;;;2.03;;
44189;SDS011;29856;52.144;5.430;2023-05-02T10:37:43;6.03;;;2.28;;
44189;SDS011;29856;52.144;5.430;2023-05-02T10:40:10;7.63;;;1.73;;
44189;SDS011;29856;52.144;5.430;2023-05-02T10:42:36;6.82;;;1.90;;
44189;SDS011;29856;52.144;5.430;2023-05-02T10:45:04;7.88;;;2.15;;
44189;SDS011;29856;52.144;5.430;2023-05-02T10:47:34;8.63;;;2.63;;
44189;SDS011;29856;52.144;5.430;2023-05-02T10:50:01;6.70;;;1.77;;
44189;SDS011;29856;52.144;5.430;2023-05-02T10:52:37;8.88;;;2.00;;
44189;SDS011;29856;52.144;5.430;2023-05-02T10:58:26;9.57;;;2.30;;
44189;SDS011;29856;52.144;5.430;2023-05-02T11:00:33;10.93;;;2.63;;
44189;SDS011;29856;52.144;5.430;2023-05-02T11:02:59;8.48;;;2.35;;
44189;SDS011;29856;52.144;5.430;2023-05-02T11:05:25;5.85;;;2.30;;
44189;SDS011;29856;52.144;5.430;2023-05-02T11:10:38;6.38;;;2.20;;
44189;SDS011;29856;52.144;5.430;2023-05-02T11:13:04;6.25;;;2.30;;
44189;SDS011;29856;52.144;5.430;2023-05-02T11:20:24;3.83;;;2.05;;
44189;SDS011;29856;52.144;5.430;2023-05-02T11:22:50;8.07;;;2.15;;
44189;SDS011;29856;52.144;5.430;2023-05-02T11:27:55;7.45;;;2.63;;
44189;SDS011;29856;52.144;5.430;2023-05-02T11:30:36;11.63;;;2.72;;
44189;SDS011;29856;52.144;5.430;2023-05-02T11:35:31;11.13;;;2.40;;
44189;SDS011;29856;52.144;5.430;2023-05-02T11:38:00;12.23;;;2.67;;
44189;SDS011;29856;52.144;5.430;2023-05-02T11:40:27;9.13;;;2.67;;
44189;SDS011;29856;52.144;5.430;2023-05-02T11:42:53;12.70;;;2.28;;
44189;SDS011;29856;52.144;5.430;2023-05-02T11:45:20;9.65;;;3.75;;
44189;SDS011;29856;52.144;5.430;2023-05-02T11:47:46;15.00;;;3.20;;
44189;SDS011;29856;52.144;5.430;2023-05-02T11:50:14;16.23;;;2.65;;
44189;SDS011;29856;52.144;5.430;2023-05-02T11:52:41;11.68;;;2.58;;
44189;SDS011;29856;52.144;5.430;2023-05-02T11:55:09;10.43;;;2.28;;
44189;SDS011;29856;52.144;5.430;2023-05-02T11:57:36;8.88;;;2.60;;
44189;SDS011;29856;52.144;5.430;2023-05-02T12:00:02;10.32;;;2.60;;
44189;SDS011;29856;52.144;5.430;2023-05-02T12:02:34;9.20;;;2.35;;
44189;SDS011;29856;52.144;5.430;2023-05-02T12:05:04;12.48;;;2.60;;
44189;SDS011;29856;52.144;5.430;2023-05-02T12:10:01;9.65;;;2.80;;
44189;SDS011;29856;52.144;5.430;2023-05-02T12:12:27;10.45;;;2.90;;
44189;SDS011;29856;52.144;5.430;2023-05-02T12:14:52;14.52;;;2.90;;
44189;SDS011;29856;52.144;5.430;2023-05-02T12:17:18;10.80;;;2.92;;
44189;SDS011;29856;52.144;5.430;2023-05-02T12:19:44;12.25;;;3.03;;
44189;SDS011;29856;52.144;5.430;2023-05-02T12:22:09;8.90;;;2.60;;
44189;SDS011;29856;52.144;5.430;2023-05-02T12:24:35;7.05;;;2.25;;
44189;SDS011;29856;52.144;5.430;2023-05-02T12:27:11;7.57;;;2.88;;
44189;SDS011;29856;52.144;5.430;2023-05-02T12:29:38;11.55;;;3.00;;
44189;SDS011;29856;52.144;5.430;2023-05-02T12:32:04;12.13;;;3.05;;
44189;SDS011;29856;52.144;5.430;2023-05-02T12:34:30;8.63;;;3.10;;
44189;SDS011;29856;52.144;5.430;2023-05-02T12:36:59;10.15;;;2.40;;
44189;SDS011;29856;52.144;5.430;2023-05-02T12:39:38;10.38;;;2.85;;
44189;SDS011;29856;52.144;5.430;2023-05-02T12:42:11;7.97;;;2.47;;
44189;SDS011;29856;52.144;5.430;2023-05-02T12:44:38;7.90;;;2.55;;
44189;SDS011;29856;52.144;5.430;2023-05-02T12:47:05;10.85;;;2.50;;
44189;SDS011;29856;52.144;5.430;2023-05-02T12:49:31;10.98;;;2.55;;
44189;SDS011;29856;52.144;5.430;2023-05-02T12:51:56;7.57;;;2.08;;
44189;SDS011;29856;52.144;5.430;2023-05-02T12:54:22;8.75;;;2.30;;
44189;SDS011;29856;52.144;5.430;2023-05-02T12:56:47;11.70;;;2.78;;
44189;SDS011;29856;52.144;5.430;2023-05-02T13:01:50;6.88;;;2.63;;
44189;SDS011;29856;52.144;5.430;2023-05-02T13:04:16;9.52;;;2.50;;
44189;SDS011;29856;52.144;5.430;2023-05-02T13:06:41;8.57;;;2.30;;
44189;SDS011;29856;52.144;5.430;2023-05-02T13:09:07;4.93;;;2.35;;
44189;SDS011;29856;52.144;5.430;2023-05-02T13:11:32;10.25;;;2.40;;
44189;SDS011;29856;52.144;5.430;2023-05-02T13:13:58;6.30;;;2.28;;
44189;SDS011;29856;52.144;5.430;2023-05-02T13:16:23;5.80;;;2.20;;
44189;SDS011;29856;52.144;5.430;2023-05-02T13:18:49;15.20;;;3.25;;
44189;SDS011;29856;52.144;5.430;2023-05-02T13:21:14;8.32;;;2.25;;
44189;SDS011;29856;52.144;5.430;2023-05-02T13:23:39;13.10;;;2.00;;
44189;SDS011;29856;52.144;5.430;2023-05-02T13:26:05;12.57;;;2.55;;
44189;SDS011;29856;52.144;5.430;2023-05-02T13:28:30;8.32;;;2.40;;
44189;SDS011;29856;52.144;5.430;2023-05-02T13:30:56;10.55;;;2.33;;
44189;SDS011;29856;52.144;5.430;2023-05-02T13:33:24;9.80;;;2.28;;
44189;SDS011;29856;52.144;5.430;2023-05-02T13:35:50;11.38;;;3.30;;
44189;SDS011;29856;52.144;5.430;2023-05-02T13:38:15;8.88;;;2.88;;
44189;SDS011;29856;52.144;5.430;2023-05-02T13:40:41;5.15;;;2.10;;
44189;SDS011;29856;52.144;5.430;2023-05-02T13:43:06;9.23;;;2.53;;
44189;SDS011;29856;52.144;5.430;2023-05-02T13:45:32;5.90;;;1.55;;
44189;SDS011;29856;52.144;5.430;2023-05-02T13:47:57;7.72;;;2.40;;
44189;SDS011;29856;52.144;5.430;2023-05-02T13:50:23;9.35;;;2.95;;
44189;SDS011;29856;52.144;5.430;2023-05-02T13:52:48;5.97;;;2.05;;
44189;SDS011;29856;52.144;5.430;2023-05-02T13:55:14;5.57;;;2.05;;
44189;SDS011;29856;52.144;5.430;2023-05-02T13:57:39;8.88;;;1.95;;
44189;SDS011;29856;52.144;5.430;2023-05-02T14:00:05;4.97;;;1.42;;
44189;SDS011;29856;52.144;5.430;2023-05-02T14:02:31;8.20;;;2.13;;
44189;SDS011;29856;52.144;5.430;2023-05-02T14:04:56;5.78;;;1.88;;
44189;SDS011;29856;52.144;5.430;2023-05-02T14:07:22;5.80;;;2.00;;
44189;SDS011;29856;52.144;5.430;2023-05-02T14:09:47;4.45;;;1.60;;
44189;SDS011;29856;52.144;5.430;2023-05-02T14:12:15;6.03;;;1.75;;
44189;SDS011;29856;52.144;5.430;2023-05-02T14:14:40;5.57;;;1.80;;
44189;SDS011;29856;52.144;5.430;2023-05-02T14:17:06;8.30;;;1.63;;
44189;SDS011;29856;52.144;5.430;2023-05-02T14:19:31;3.65;;;2.00;;
44189;SDS011;29856;52.144;5.430;2023-05-02T14:21:57;4.78;;;1.70;;
44189;SDS011;29856;52.144;5.430;2023-05-02T14:24:22;6.15;;;1.80;;
44189;SDS011;29856;52.144;5.430;2023-05-02T14:26:48;6.85;;;1.80;;
44189;SDS011;29856;52.144;5.430;2023-05-02T14:29:13;6.32;;;2.05;;
44189;SDS011;29856;52.144;5.430;2023-05-02T14:31:39;6.20;;;1.60;;
44189;SDS011;29856;52.144;5.430;2023-05-02T14:34:04;2.60;;;1.30;;
44189;SDS011;29856;52.144;5.430;2023-05-02T14:36:30;5.80;;;1.98;;
44189;SDS011;29856;52.144;5.430;2023-05-02T14:38:55;9.77;;;2.45;;
44189;SDS011;29856;52.144;5.430;2023-05-02T14:41:21;6.57;;;2.15;;
44189;SDS011;29856;52.144;5.430;2023-05-02T14:43:46;5.05;;;2.00;;
44189;SDS011;29856;52.144;5.430;2023-05-02T14:46:12;6.30;;;1.92;;
44189;SDS011;29856;52.144;5.430;2023-05-02T14:48:37;11.00;;;1.88;;
44189;SDS011;29856;52.144;5.430;2023-05-02T14:51:03;3.53;;;1.60;;
44189;SDS011;29856;52.144;5.430;2023-05-02T14:53:28;4.65;;;2.13;;
44189;SDS011;29856;52.144;5.430;2023-05-02T14:55:54;8.75;;;1.67;;
44189;SDS011;29856;52.144;5.430;2023-05-02T14:58:19;6.18;;;1.75;;
44189;SDS011;29856;52.144;5.430;2023-05-02T15:00:45;5.13;;;1.65;;
44189;SDS011;29856;52.144;5.430;2023-05-02T15:03:11;4.93;;;1.75;;
44189;SDS011;29856;52.144;5.430;2023-05-02T15:05:37;4.93;;;1.85;;
44189;SDS011;29856;52.144;5.430;2023-05-02T15:08:03;3.42;;;1.58;;
44189;SDS011;29856;52.144;5.430;2023-05-02T15:10:29;7.72;;;2.40;;
44189;SDS011;29856;52.144;5.430;2023-05-02T15:12:54;5.28;;;1.80;;
44189;SDS011;29856;52.144;5.430;2023-05-02T15:15:20;11.10;;;1.88;;
44189;SDS011;29856;52.144;5.430;2023-05-02T15:17:45;5.93;;;1.40;;